Time;durP1;ratioP1;P1;durP2;ratioP2;P2;SDS_P1;SDS_P2;PMS_P1;PMS_P2;Temp;Humidity;BMP_temperature;BMP_pressure;BME280_temperature;BME280_humidity;BME280_pressure;Samples;Min_cycle;Max_cycle;Signal;HPM_P1;HPM_P2
2021/05/23 00:00:52;;;;;;;6.15;2.05;;;;;;;;;;5032431;28;20049;-61
2021/05/23 00:03:37;;;;;;;8.65;2.38;;;;;;;;;;5032661;28;20057;-60
2021/05/23 00:06:23;;;;;;;9.23;2.55;;;;;;;;;;5030729;28;20041;-61
2021/05/23 00:09:08;;;;;;;8.68;2.13;;;;;;;;;;5032719;28;20073;-61
2021/05/23 00:11:54;;;;;;;9.98;1.90;;;;;;;;;;5032511;28;20484;-61
2021/05/23 00:14:39;;;;;;;10.82;2.10;;;;;;;;;;5031068;28;20095;-61
2021/05/23 00:17:25;;;;;;;6.88;1.90;;;;;;;;;;5032410;28;20061;-60
2021/05/23 00:20:10;;;;;;;10.13;2.00;;;;;;;;;;5031995;28;20061;-61
2021/05/23 00:22:56;;;;;;;5.40;1.83;;;;;;;;;;5032487;28;20127;-61
2021/05/23 00:25:41;;;;;;;6.90;1.75;;;;;;;;;;5001477;28;20050;-61
2021/05/23 00:28:26;;;;;;;5.10;1.92;;;;;;;;;;5012436;28;20499;-61
2021/05/23 00:31:12;;;;;;;6.80;1.90;;;;;;;;;;5012434;28;20046;-61
2021/05/23 00:33:57;;;;;;;10.13;2.28;;;;;;;;;;5027189;28;20045;-61
2021/05/23 00:36:43;;;;;;;11.80;2.72;;;;;;;;;;5032068;28;20045;-61
2021/05/23 00:39:28;;;;;;;7.22;1.92;;;;;;;;;;5031922;28;20120;-62
2021/05/23 00:42:14;;;;;;;11.05;3.10;;;;;;;;;;5032181;28;20092;-60
2021/05/23 00:45:00;;;;;;;9.45;2.22;;;;;;;;;;4992883;28;20117;-60
2021/05/23 00:47:46;;;;;;;7.47;2.17;;;;;;;;;;4992679;28;20435;-60
2021/05/23 00:50:31;;;;;;;6.82;2.40;;;;;;;;;;4992386;28;20049;-61
2021/05/23 00:53:17;;;;;;;11.07;2.92;;;;;;;;;;5000180;28;20396;-60
2021/05/23 00:56:02;;;;;;;10.10;2.65;;;;;;;;;;5032011;28;20052;-60
2021/05/23 00:58:48;;;;;;;10.15;3.08;;;;;;;;;;5033780;28;20420;-60
2021/05/23 01:01:45;;;;;;;8.30;2.88;;;;;;;;;;5035836;28;20132;-61
2021/05/23 01:04:30;;;;;;;10.73;2.65;;;;;;;;;;5025000;28;20540;-60
2021/05/23 01:07:15;;;;;;;7.85;2.78;;;;;;;;;;5016220;28;20049;-61
2021/05/23 01:10:11;;;;;;;8.75;2.75;;;;;;;;;;5015802;28;20053;-60
2021/05/23 01:12:56;;;;;;;12.40;3.60;;;;;;;;;;5016251;28;20583;-60
2021/05/23 01:15:42;;;;;;;7.75;2.67;;;;;;;;;;5033579;28;20116;-61
2021/05/23 01:18:29;;;;;;;9.30;3.05;;;;;;;;;;5020876;28;20041;-60
2021/05/23 01:21:15;;;;;;;10.68;3.22;;;;;;;;;;5020721;28;20147;-61
2021/05/23 01:24:01;;;;;;;10.50;2.67;;;;;;;;;;5019734;28;20150;-61
2021/05/23 01:26:53;;;;;;;9.05;2.85;;;;;;;;;;5015697;28;20038;-61
2021/05/23 01:29:39;;;;;;;10.82;2.83;;;;;;;;;;5014589;28;20096;-60
2021/05/23 01:32:24;;;;;;;7.45;2.80;;;;;;;;;;5015783;28;20059;-60
2021/05/23 01:35:12;;;;;;;10.20;3.58;;;;;;;;;;5022210;28;20491;-64
2021/05/23 01:38:00;;;;;;;9.18;2.78;;;;;;;;;;5035267;28;20096;-63
2021/05/23 01:40:46;;;;;;;7.30;3.05;;;;;;;;;;5035184;28;20557;-64
2021/05/23 01:43:31;;;;;;;11.35;3.38;;;;;;;;;;5035383;28;20048;-64
2021/05/23 01:46:17;;;;;;;7.97;3.08;;;;;;;;;;5018921;28;20046;-63
2021/05/23 01:49:02;;;;;;;7.75;3.40;;;;;;;;;;5020104;28;20057;-64
2021/05/23 01:51:47;;;;;;;6.80;3.25;;;;;;;;;;5035114;28;20053;-63
2021/05/23 01:54:33;;;;;;;15.07;3.80;;;;;;;;;;5035159;28;20132;-61
2021/05/23 01:57:18;;;;;;;7.75;3.25;;;;;;;;;;5034941;28;20127;-62
2021/05/23 02:00:04;;;;;;;13.57;3.17;;;;;;;;;;5030275;28;20045;-62
2021/05/23 02:02:54;;;;;;;10.43;3.55;;;;;;;;;;5015170;28;20049;-61
2021/05/23 02:05:40;;;;;;;11.95;3.30;;;;;;;;;;5014556;28;20045;-61
2021/05/23 02:08:29;;;;;;;11.70;3.75;;;;;;;;;;5000347;28;20109;-62
2021/05/23 02:11:14;;;;;;;12.18;4.70;;;;;;;;;;5015183;28;20041;-61
2021/05/23 02:13:59;;;;;;;8.02;3.17;;;;;;;;;;5034736;28;20056;-62
2021/05/23 02:16:45;;;;;;;7.82;3.30;;;;;;;;;;5034424;28;20058;-62
2021/05/23 02:19:30;;;;;;;13.60;4.15;;;;;;;;;;5034456;28;20049;-60
2021/05/23 02:22:15;;;;;;;13.25;3.50;;;;;;;;;;5018014;28;20044;-62
2021/05/23 02:25:01;;;;;;;11.32;3.95;;;;;;;;;;5014800;28;20164;-61
2021/05/23 02:27:47;;;;;;;11.15;3.60;;;;;;;;;;5014303;28;20056;-60
2021/05/23 02:30:39;;;;;;;12.73;3.90;;;;;;;;;;5012805;28;20484;-61
2021/05/23 02:33:27;;;;;;;11.30;4.15;;;;;;;;;;4994899;28;20467;-61
2021/05/23 02:36:12;;;;;;;12.05;3.67;;;;;;;;;;4994964;28;20054;-61
2021/05/23 02:38:57;;;;;;;19.42;6.20;;;;;;;;;;4994922;28;20130;-61
2021/05/23 02:41:43;;;;;;;13.35;3.85;;;;;;;;;;5006681;28;20041;-61
2021/05/23 02:44:33;;;;;;;9.68;3.53;;;;;;;;;;5034310;28;20128;-61
2021/05/23 02:47:20;;;;;;;8.07;3.65;;;;;;;;;;5034047;28;20084;-61
2021/05/23 02:50:05;;;;;;;13.75;4.53;;;;;;;;;;5033678;28;20061;-61
2021/05/23 02:52:51;;;;;;;15.35;4.22;;;;;;;;;;5021895;28;20050;-60
2021/05/23 02:55:37;;;;;;;12.25;4.22;;;;;;;;;;5014178;28;20495;-60
2021/05/23 02:58:22;;;;;;;8.75;4.15;;;;;;;;;;5013985;28;20513;-61
2021/05/23 03:01:07;;;;;;;19.08;5.07;;;;;;;;;;5013763;28;20546;-60
2021/05/23 03:03:53;;;;;;;14.77;4.93;;;;;;;;;;5031726;28;20060;-61
2021/05/23 03:06:38;;;;;;;17.98;4.55;;;;;;;;;;5033793;28;20049;-61
2021/05/23 03:09:24;;;;;;;16.40;5.07;;;;;;;;;;5032859;28;20061;-62
2021/05/23 03:12:09;;;;;;;10.55;4.88;;;;;;;;;;5032828;28;20056;-62
2021/05/23 03:14:54;;;;;;;10.55;4.45;;;;;;;;;;5013970;28;20414;-61
2021/05/23 03:17:40;;;;;;;13.13;6.00;;;;;;;;;;5013894;28;20065;-61
2021/05/23 03:20:26;;;;;;;18.10;5.32;;;;;;;;;;5013589;28;20108;-60
2021/05/23 03:23:11;;;;;;;13.23;5.45;;;;;;;;;;5013793;28;20054;-61
2021/05/23 03:25:57;;;;;;;13.13;4.95;;;;;;;;;;5013352;28;20517;-61
2021/05/23 03:28:43;;;;;;;16.40;6.43;;;;;;;;;;5014692;28;20412;-61
2021/05/23 03:31:29;;;;;;;10.60;4.97;;;;;;;;;;5013128;28;20049;-61
2021/05/23 03:34:14;;;;;;;10.07;4.88;;;;;;;;;;5014783;28;20046;-61
2021/05/23 03:37:00;;;;;;;11.48;4.93;;;;;;;;;;5014837;28;20050;-61
2021/05/23 03:39:45;;;;;;;7.82;4.47;;;;;;;;;;5026144;28;20046;-61
2021/05/23 03:42:30;;;;;;;9.88;4.38;;;;;;;;;;5020894;28;20060;-61
2021/05/23 03:45:16;;;;;;;9.52;4.65;;;;;;;;;;5033067;28;20127;-61
2021/05/23 03:48:02;;;;;;;11.20;4.65;;;;;;;;;;5032956;28;20175;-60
2021/05/23 03:50:47;;;;;;;17.63;5.47;;;;;;;;;;5032618;28;20131;-61
2021/05/23 03:53:32;;;;;;;13.60;4.40;;;;;;;;;;5031363;28;20049;-61
2021/05/23 03:56:18;;;;;;;12.85;5.10;;;;;;;;;;5032798;28;20041;-61
2021/05/23 03:59:03;;;;;;;10.23;4.35;;;;;;;;;;5032725;28;20052;-61
2021/05/23 04:01:48;;;;;;;9.48;4.40;;;;;;;;;;5032588;28;20125;-61
2021/05/23 04:04:48;;;;;;;12.35;4.40;;;;;;;;;;5014219;28;20060;-62
2021/05/23 04:07:33;;;;;;;12.77;4.50;;;;;;;;;;5013130;28;20057;-61
2021/05/23 04:10:19;;;;;;;10.30;4.35;;;;;;;;;;5012556;28;20077;-60
2021/05/23 04:13:06;;;;;;;10.48;4.47;;;;;;;;;;5015900;28;20500;-60
2021/05/23 04:15:51;;;;;;;12.05;4.20;;;;;;;;;;5032195;28;20500;-61
2021/05/23 04:18:37;;;;;;;6.43;3.70;;;;;;;;;;5032468;28;20053;-61
2021/05/23 04:21:22;;;;;;;10.70;4.07;;;;;;;;;;5032143;28;20056;-62
2021/05/23 04:24:08;;;;;;;8.70;3.78;;;;;;;;;;5030723;28;20052;-61
2021/05/23 04:26:53;;;;;;;13.30;4.30;;;;;;;;;;5032062;28;20048;-61
2021/05/23 04:29:38;;;;;;;12.52;4.00;;;;;;;;;;5017403;28;20041;-61
2021/05/23 04:32:23;;;;;;;10.65;4.30;;;;;;;;;;5031987;28;20057;-61
2021/05/23 04:35:09;;;;;;;7.63;3.20;;;;;;;;;;5017519;28;20124;-61
2021/05/23 04:37:54;;;;;;;9.55;3.90;;;;;;;;;;5012459;28;20492;-61
2021/05/23 04:40:39;;;;;;;10.73;3.60;;;;;;;;;;5012156;28;20156;-60
2021/05/23 04:43:25;;;;;;;10.48;2.97;;;;;;;;;;5012502;28;20115;-61
2021/05/23 04:46:10;;;;;;;14.13;3.85;;;;;;;;;;5029647;28;20048;-61
2021/05/23 04:48:55;;;;;;;15.48;4.05;;;;;;;;;;5030602;28;20484;-61
2021/05/23 04:51:41;;;;;;;9.77;3.47;;;;;;;;;;5031789;28;20068;-61
2021/05/23 04:54:27;;;;;;;12.20;3.50;;;;;;;;;;5030368;28;20045;-61
2021/05/23 04:57:12;;;;;;;6.72;3.78;;;;;;;;;;5031866;28;20037;-61
2021/05/23 04:59:57;;;;;;;6.07;3.35;;;;;;;;;;5031604;28;20072;-61
2021/05/23 05:02:43;;;;;;;11.75;3.72;;;;;;;;;;5031911;28;20057;-61
2021/05/23 05:05:28;;;;;;;14.18;3.78;;;;;;;;;;5017041;28;20104;-61
2021/05/23 05:08:14;;;;;;;10.27;4.40;;;;;;;;;;5017947;28;20060;-62
2021/05/23 05:10:59;;;;;;;7.68;3.85;;;;;;;;;;5015429;28;20144;-61
2021/05/23 05:13:44;;;;;;;9.15;4.20;;;;;;;;;;5020619;28;20044;-62
2021/05/23 05:16:30;;;;;;;5.85;3.88;;;;;;;;;;5019606;28;20041;-62
2021/05/23 05:19:15;;;;;;;10.57;4.40;;;;;;;;;;5018893;28;20412;-61
2021/05/23 05:22:00;;;;;;;12.20;4.15;;;;;;;;;;5020441;28;20053;-62
2021/05/23 05:24:46;;;;;;;12.15;4.80;;;;;;;;;;5020404;28;20408;-60
2021/05/23 05:27:31;;;;;;;9.57;4.82;;;;;;;;;;5017090;28;20500;-61
2021/05/23 05:30:16;;;;;;;11.13;4.97;;;;;;;;;;5015157;28;20164;-61
2021/05/23 05:33:02;;;;;;;16.80;5.60;;;;;;;;;;5018547;28;20058;-61
2021/05/23 05:35:47;;;;;;;12.32;5.88;;;;;;;;;;5026235;28;20048;-61
2021/05/23 05:38:33;;;;;;;14.45;6.47;;;;;;;;;;5021730;28;20048;-62
2021/05/23 05:41:19;;;;;;;14.70;6.95;;;;;;;;;;5019578;28;20053;-61
2021/05/23 05:44:04;;;;;;;14.38;7.03;;;;;;;;;;4992221;28;20166;-61
2021/05/23 05:46:51;;;;;;;17.40;8.35;;;;;;;;;;5013080;28;20550;-62
2021/05/23 05:49:37;;;;;;;13.98;7.13;;;;;;;;;;5015215;28;20045;-61
2021/05/23 05:52:22;;;;;;;14.25;7.85;;;;;;;;;;5014991;28;20049;-61
2021/05/23 05:55:08;;;;;;;22.13;8.30;;;;;;;;;;5019103;28;20112;-61
2021/05/23 05:57:53;;;;;;;14.18;8.82;;;;;;;;;;5035357;28;20053;-62
2021/05/23 06:00:39;;;;;;;21.85;9.15;;;;;;;;;;5034927;28;20045;-62
2021/05/23 06:03:24;;;;;;;19.27;8.32;;;;;;;;;;5034946;28;20420;-61
2021/05/23 06:06:09;;;;;;;19.35;7.95;;;;;;;;;;5025138;28;20065;-61
2021/05/23 06:08:55;;;;;;;17.88;8.90;;;;;;;;;;5015225;28;20189;-61
2021/05/23 06:11:40;;;;;;;17.27;8.27;;;;;;;;;;5014773;28;20077;-61
2021/05/23 06:14:25;;;;;;;14.93;8.63;;;;;;;;;;5014927;28;20500;-61
2021/05/23 06:17:11;;;;;;;14.68;7.28;;;;;;;;;;5029682;28;20507;-62
2021/05/23 06:19:56;;;;;;;16.23;9.07;;;;;;;;;;5034390;28;20148;-61
2021/05/23 06:22:42;;;;;;;17.42;8.57;;;;;;;;;;5034780;28;20057;-61
2021/05/23 06:25:27;;;;;;;23.92;9.43;;;;;;;;;;5034763;28;20092;-61
2021/05/23 06:28:12;;;;;;;13.13;6.55;;;;;;;;;;4995043;28;20527;-61
2021/05/23 06:30:58;;;;;;;17.55;7.28;;;;;;;;;;4995583;28;20056;-62
2021/05/23 06:33:43;;;;;;;11.48;6.60;;;;;;;;;;5022144;28;20060;-61
2021/05/23 06:36:28;;;;;;;12.40;6.85;;;;;;;;;;5022099;28;20044;-61
2021/05/23 06:39:14;;;;;;;12.77;6.82;;;;;;;;;;5020646;28;20040;-61
2021/05/23 06:41:59;;;;;;;10.70;6.07;;;;;;;;;;5018818;28;20046;-61
2021/05/23 06:44:45;;;;;;;14.75;6.32;;;;;;;;;;5014067;28;20423;-62
2021/05/23 06:47:30;;;;;;;13.90;6.05;;;;;;;;;;5013653;28;20061;-62
2021/05/23 06:50:15;;;;;;;14.50;6.53;;;;;;;;;;5012380;28;20065;-61
2021/05/23 06:53:01;;;;;;;22.55;7.47;;;;;;;;;;5013637;28;20101;-62
2021/05/23 06:55:46;;;;;;;12.77;6.35;;;;;;;;;;5011313;28;20053;-62
2021/05/23 06:58:32;;;;;;;13.75;5.55;;;;;;;;;;5019912;28;20038;-62
2021/05/23 07:01:17;;;;;;;13.20;6.00;;;;;;;;;;5022864;28;20069;-62
2021/05/23 07:04:03;;;;;;;15.77;5.90;;;;;;;;;;5022198;28;20128;-62
2021/05/23 07:06:48;;;;;;;22.35;6.22;;;;;;;;;;5021050;28;20065;-62
2021/05/23 07:09:34;;;;;;;11.32;5.53;;;;;;;;;;5023082;28;20064;-62
2021/05/23 07:12:19;;;;;;;21.65;6.22;;;;;;;;;;5020926;28;20041;-63
2021/05/23 07:15:05;;;;;;;8.80;4.97;;;;;;;;;;5022469;28;20038;-64
2021/05/23 07:17:53;;;;;;;14.52;5.55;;;;;;;;;;5021176;28;20070;-62
2021/05/23 07:20:38;;;;;;;17.20;4.90;;;;;;;;;;5023281;28;20053;-62
2021/05/23 07:23:23;;;;;;;11.18;4.47;;;;;;;;;;5019468;28;20181;-62
2021/05/23 07:26:09;;;;;;;14.45;5.25;;;;;;;;;;5012327;28;20104;-62
2021/05/23 07:28:54;;;;;;;11.35;5.22;;;;;;;;;;5013309;28;20058;-62
2021/05/23 07:31:39;;;;;;;10.52;6.40;;;;;;;;;;5012856;28;20528;-62
2021/05/23 07:34:25;;;;;;;11.10;4.90;;;;;;;;;;5011786;28;20400;-63
2021/05/23 07:37:10;;;;;;;6.97;4.47;;;;;;;;;;5013203;28;20049;-61
2021/05/23 07:39:55;;;;;;;8.60;5.20;;;;;;;;;;5025939;28;20055;-61
2021/05/23 07:42:42;;;;;;;13.35;5.20;;;;;;;;;;5032016;28;20051;-62
2021/05/23 07:45:27;;;;;;;6.80;4.70;;;;;;;;;;5032934;28;20057;-61
2021/05/23 07:48:13;;;;;;;8.05;4.35;;;;;;;;;;5032811;28;20103;-62
2021/05/23 07:50:58;;;;;;;9.73;3.75;;;;;;;;;;4993159;28;20122;-62
2021/05/23 07:53:44;;;;;;;6.80;4.65;;;;;;;;;;4993561;28;20523;-61
2021/05/23 07:56:29;;;;;;;8.80;6.10;;;;;;;;;;4992263;28;20057;-62
2021/05/23 07:59:15;;;;;;;9.45;6.10;;;;;;;;;;4998090;28;20045;-62
2021/05/23 08:02:00;;;;;;;12.82;4.93;;;;;;;;;;5032778;28;20052;-62
2021/05/23 08:04:46;;;;;;;9.35;5.45;;;;;;;;;;5032801;28;20052;-62
2021/05/23 08:07:31;;;;;;;13.98;5.75;;;;;;;;;;5030163;28;20060;-62
2021/05/23 08:10:17;;;;;;;9.10;5.75;;;;;;;;;;5012515;28;20522;-62
2021/05/23 08:13:02;;;;;;;9.10;6.80;;;;;;;;;;5012858;28;20053;-62
2021/05/23 08:15:48;;;;;;;12.30;7.10;;;;;;;;;;5009285;28;20045;-62
2021/05/23 08:18:33;;;;;;;15.27;8.30;;;;;;;;;;5013196;28;20053;-61
2021/05/23 08:21:18;;;;;;;12.15;7.95;;;;;;;;;;5007654;28;20053;-62
2021/05/23 08:24:04;;;;;;;12.98;9.90;;;;;;;;;;5011454;28;20044;-62
2021/05/23 08:26:49;;;;;;;12.05;7.72;;;;;;;;;;5012048;28;20076;-62
2021/05/23 08:29:34;;;;;;;7.50;6.13;;;;;;;;;;5024859;28;20141;-62
2021/05/23 08:32:22;;;;;;;8.15;7.28;;;;;;;;;;5032317;28;20120;-62
2021/05/23 08:35:08;;;;;;;7.97;7.18;;;;;;;;;;5032184;28;20080;-62
2021/05/23 08:37:53;;;;;;;9.10;7.32;;;;;;;;;;5031940;28;20041;-63
2021/05/23 08:40:38;;;;;;;9.85;7.47;;;;;;;;;;5012348;28;20046;-62
2021/05/23 08:43:26;;;;;;;10.98;7.85;;;;;;;;;;5011049;28;20674;-63
2021/05/23 08:46:11;;;;;;;9.27;7.10;;;;;;;;;;5011478;28;20056;-63
2021/05/23 08:48:57;;;;;;;8.25;6.65;;;;;;;;;;5014613;28;20176;-62
2021/05/23 08:51:42;;;;;;;7.07;6.18;;;;;;;;;;5031885;28;20037;-61
2021/05/23 08:54:29;;;;;;;7.47;6.68;;;;;;;;;;5032166;28;20511;-62
2021/05/23 08:57:14;;;;;;;7.07;6.30;;;;;;;;;;5005840;28;20176;-62
2021/05/23 08:59:59;;;;;;;10.82;8.05;;;;;;;;;;5009461;28;20046;-62
2021/05/23 09:02:58;;;;;;;8.93;7.63;;;;;;;;;;5012038;28;20508;-62
2021/05/23 09:05:50;;;;;;;7.90;7.10;;;;;;;;;;4997488;28;20056;-62
2021/05/23 09:08:35;;;;;;;14.75;8.23;;;;;;;;;;5031176;28;20542;-62
2021/05/23 09:11:21;;;;;;;11.63;9.57;;;;;;;;;;5031249;28;20415;-61
2021/05/23 09:14:06;;;;;;;12.85;9.55;;;;;;;;;;5016736;28;20559;-61
2021/05/23 09:16:51;;;;;;;10.15;9.05;;;;;;;;;;5029186;28;20067;-61
2021/05/23 09:19:42;;;;;;;10.10;9.07;;;;;;;;;;5011573;28;20447;-62
2021/05/23 09:22:29;;;;;;;10.93;9.40;;;;;;;;;;5013736;28;20080;-62
2021/05/23 09:25:14;;;;;;;10.55;9.45;;;;;;;;;;5000338;28;20504;-62
2021/05/23 09:27:59;;;;;;;15.13;10.15;;;;;;;;;;5023633;28;20096;-62
2021/05/23 09:30:47;;;;;;;11.13;9.85;;;;;;;;;;5026427;28;20055;-61
2021/05/23 09:33:32;;;;;;;11.10;10.02;;;;;;;;;;5015687;28;20049;-62
2021/05/23 09:36:17;;;;;;;11.73;10.50;;;;;;;;;;5015507;28;20064;-62
2021/05/23 09:39:04;;;;;;;10.13;9.10;;;;;;;;;;5000629;28;20053;-62
2021/05/23 09:41:49;;;;;;;7.70;5.90;;;;;;;;;;5029370;28;20084;-62
2021/05/23 09:44:34;;;;;;;6.65;5.85;;;;;;;;;;5034887;28;20053;-62
2021/05/23 09:47:20;;;;;;;5.40;4.90;;;;;;;;;;5034598;28;20119;-63
2021/05/23 09:50:07;;;;;;;4.55;3.85;;;;;;;;;;5036755;28;20548;-62
2021/05/23 09:52:53;;;;;;;4.28;3.88;;;;;;;;;;5016961;28;20141;-63
2021/05/23 09:55:39;;;;;;;5.80;5.30;;;;;;;;;;5016539;28;20124;-63
2021/05/23 09:58:25;;;;;;;5.63;5.22;;;;;;;;;;5015429;28;20121;-61
2021/05/23 10:01:11;;;;;;;7.43;6.35;;;;;;;;;;5016121;28;20436;-62
2021/05/23 10:03:58;;;;;;;5.95;5.45;;;;;;;;;;5015377;28;20050;-63
2021/05/23 10:06:43;;;;;;;4.72;4.28;;;;;;;;;;5015928;28;20060;-63
2021/05/23 10:09:28;;;;;;;4.38;3.97;;;;;;;;;;5015385;28;20076;-62
2021/05/23 10:12:14;;;;;;;0.85;0.65;;;;;;;;;;5013927;28;20527;-62
2021/05/23 10:14:59;;;;;;;1.60;0.60;;;;;;;;;;4988052;28;20065;-62
2021/05/23 10:17:45;;;;;;;1.20;0.40;;;;;;;;;;4996034;28;20070;-62
2021/05/23 10:20:30;;;;;;;0.55;0.30;;;;;;;;;;5009635;28;20157;-63
2021/05/23 10:23:17;;;;;;;2.92;0.60;;;;;;;;;;5011564;28;20056;-63
2021/05/23 10:26:03;;;;;;;0.50;0.50;;;;;;;;;;5013765;28;20142;-62
2021/05/23 10:28:48;;;;;;;1.88;0.63;;;;;;;;;;5014377;28;20100;-61
2021/05/23 10:31:36;;;;;;;1.70;0.90;;;;;;;;;;5012376;28;20042;-62
2021/05/23 10:34:32;;;;;;;3.72;0.70;;;;;;;;;;5034166;28;20128;-62
2021/05/23 10:37:18;;;;;;;1.20;0.70;;;;;;;;;;5027573;28;20462;-62
2021/05/23 10:40:04;;;;;;;1.00;0.68;;;;;;;;;;5014137;28;20046;-61
2021/05/23 10:42:50;;;;;;;3.50;1.05;;;;;;;;;;5019377;28;20172;-62
2021/05/23 10:45:38;;;;;;;2.03;1.20;;;;;;;;;;5034104;28;20049;-62
2021/05/23 10:48:24;;;;;;;2.67;1.00;;;;;;;;;;5034144;28;20049;-62
2021/05/23 10:51:12;;;;;;;1.42;0.80;;;;;;;;;;5028403;28;20057;-62
2021/05/23 10:53:58;;;;;;;1.48;0.90;;;;;;;;;;5014231;28;20053;-62
2021/05/23 10:56:45;;;;;;;3.42;1.25;;;;;;;;;;5014188;28;20052;-62
2021/05/23 10:59:31;;;;;;;1.52;0.73;;;;;;;;;;5013951;28;20052;-62
2021/05/23 11:02:17;;;;;;;1.10;1.00;;;;;;;;;;5006746;28;20505;-63
2021/05/23 11:05:05;;;;;;;2.30;0.70;;;;;;;;;;5015537;28;20054;-62
2021/05/23 11:08:11;;;;;;;1.88;1.23;;;;;;;;;;5013090;28;20415;-62
2021/05/23 11:10:57;;;;;;;2.10;1.10;;;;;;;;;;5010755;28;20050;-63
2021/05/23 11:13:42;;;;;;;1.85;1.30;;;;;;;;;;4994003;28;20050;-62
2021/05/23 11:16:27;;;;;;;1.80;1.67;;;;;;;;;;4994800;28;20042;-63
2021/05/23 11:19:13;;;;;;;1.63;1.52;;;;;;;;;;4994392;28;20122;-62
2021/05/23 11:21:59;;;;;;;1.92;1.83;;;;;;;;;;4983162;28;20053;-62
2021/05/23 11:24:47;;;;;;;1.83;1.73;;;;;;;;;;5013686;28;20476;-62
2021/05/23 11:27:33;;;;;;;2.03;1.83;;;;;;;;;;5013755;28;20496;-63
2021/05/23 11:30:18;;;;;;;6.70;1.80;;;;;;;;;;5044837;23;20149;-63
2021/05/23 11:33:08;;;;;;;3.72;2.42;;;;;;;;;;4999887;28;20506;-64
2021/05/23 11:35:53;;;;;;;3.97;2.97;;;;;;;;;;4999762;28;20057;-64
2021/05/23 11:38:39;;;;;;;2.30;2.10;;;;;;;;;;5013511;28;20064;-64
2021/05/23 11:41:31;;;;;;;3.50;2.20;;;;;;;;;;5003997;28;20053;-64
2021/05/23 11:44:18;;;;;;;2.10;1.90;;;;;;;;;;4992098;28;20420;-64
2021/05/23 11:47:03;;;;;;;2.20;1.88;;;;;;;;;;4993659;28;20520;-64
2021/05/23 11:49:49;;;;;;;2.22;1.98;;;;;;;;;;4993185;28;20073;-64
2021/05/23 11:52:42;;;;;;;3.22;2.25;;;;;;;;;;4994778;28;20057;-63
2021/05/23 11:55:28;;;;;;;3.65;2.05;;;;;;;;;;4993762;28;20050;-63
2021/05/23 11:58:13;;;;;;;3.50;1.90;;;;;;;;;;5010429;28;20041;-63
2021/05/23 12:01:11;;;;;;;2.97;2.58;;;;;;;;;;5012862;28;20042;-63
2021/05/23 12:04:01;;;;;;;2.08;1.98;;;;;;;;;;4993440;28;20050;-63
2021/05/23 12:06:48;;;;;;;3.05;2.10;;;;;;;;;;4993598;28;20177;-63
2021/05/23 12:09:37;;;;;;;2.05;1.92;;;;;;;;;;4993120;28;20050;-64
2021/05/23 12:12:24;;;;;;;3.42;2.10;;;;;;;;;;5000894;28;20143;-64
2021/05/23 12:15:14;;;;;;;3.92;2.10;;;;;;;;;;4973963;28;20066;-63
2021/05/23 12:18:00;;;;;;;3.38;2.45;;;;;;;;;;4986492;28;20054;-64
2021/05/23 12:20:47;;;;;;;2.38;1.98;;;;;;;;;;4973534;28;20125;-64
2021/05/23 12:23:33;;;;;;;3.72;2.17;;;;;;;;;;4998720;28;20489;-64
2021/05/23 12:26:20;;;;;;;2.17;1.92;;;;;;;;;;4992105;28;20133;-64
2021/05/23 12:29:05;;;;;;;2.60;2.40;;;;;;;;;;4992011;28;20054;-63
2021/05/23 12:31:50;;;;;;;2.72;2.03;;;;;;;;;;4992995;28;20149;-64
2021/05/23 12:34:39;;;;;;;2.45;2.20;;;;;;;;;;4958994;28;20062;-64
2021/05/23 12:37:24;;;;;;;4.75;2.00;;;;;;;;;;4972622;28;20126;-64
2021/05/23 12:40:19;;;;;;;3.08;2.30;;;;;;;;;;4972140;28;20113;-63
2021/05/23 12:43:14;;;;;;;2.72;2.53;;;;;;;;;;5000980;28;20046;-64
2021/05/23 12:46:00;;;;;;;4.07;2.72;;;;;;;;;;4997564;28;20065;-64
2021/05/23 12:48:46;;;;;;;3.95;2.10;;;;;;;;;;4994409;28;20539;-64
2021/05/23 12:51:31;;;;;;;2.72;2.50;;;;;;;;;;5006172;28;20068;-64
2021/05/23 12:54:32;;;;;;;3.38;2.40;;;;;;;;;;4991975;28;20099;-64
2021/05/23 12:57:18;;;;;;;5.55;2.05;;;;;;;;;;4990768;28;20197;-64
2021/05/23 13:00:07;;;;;;;5.35;2.65;;;;;;;;;;5001735;28;20044;-64
2021/05/23 13:03:01;;;;;;;2.88;2.03;;;;;;;;;;4995780;28;20104;-64
2021/05/23 13:05:54;;;;;;;5.22;1.98;;;;;;;;;;4992500;28;20593;-64
2021/05/23 13:08:39;;;;;;;4.85;1.88;;;;;;;;;;4975338;28;20078;-65
2021/05/23 13:11:25;;;;;;;2.53;1.60;;;;;;;;;;4990675;28;20074;-64
2021/05/23 13:14:10;;;;;;;5.45;1.92;;;;;;;;;;4992202;28;20093;-64
2021/05/23 13:16:57;;;;;;;3.47;1.35;;;;;;;;;;4973163;28;20051;-64
2021/05/23 13:19:43;;;;;;;3.63;1.58;;;;;;;;;;4972786;28;20062;-64
2021/05/23 13:22:29;;;;;;;3.55;1.25;;;;;;;;;;4995151;28;20049;-64
2021/05/23 13:25:14;;;;;;;3.25;1.35;;;;;;;;;;5012041;28;20069;-64
2021/05/23 13:27:59;;;;;;;4.13;1.60;;;;;;;;;;5012310;28;20132;-64
2021/05/23 13:30:45;;;;;;;5.03;1.83;;;;;;;;;;4972655;28;20132;-63
2021/05/23 13:33:30;;;;;;;6.00;1.90;;;;;;;;;;4972944;28;20054;-64
2021/05/23 13:36:15;;;;;;;4.18;1.95;;;;;;;;;;4985385;28;20053;-64
2021/05/23 13:39:01;;;;;;;3.42;1.85;;;;;;;;;;4992252;28;20404;-64
2021/05/23 13:41:46;;;;;;;9.70;1.98;;;;;;;;;;4992142;28;20651;-64
2021/05/23 13:44:32;;;;;;;6.85;1.90;;;;;;;;;;4972930;28;20053;-64
2021/05/23 13:47:19;;;;;;;4.72;1.63;;;;;;;;;;4972821;28;20123;-64
2021/05/23 13:50:05;;;;;;;7.28;1.75;;;;;;;;;;4977598;28;20048;-65
2021/05/23 13:52:51;;;;;;;4.18;1.70;;;;;;;;;;4992804;28;20139;-65
2021/05/23 13:55:37;;;;;;;6.45;1.95;;;;;;;;;;5004924;28;20072;-64
2021/05/23 13:58:23;;;;;;;4.97;1.90;;;;;;;;;;4992194;28;20129;-64
2021/05/23 14:01:08;;;;;;;3.45;2.45;;;;;;;;;;4972431;28;20123;-63
2021/05/23 14:03:53;;;;;;;7.22;2.15;;;;;;;;;;4972702;28;20061;-64
2021/05/23 14:06:39;;;;;;;5.40;2.30;;;;;;;;;;4983551;28;20042;-63
2021/05/23 14:09:24;;;;;;;5.75;2.13;;;;;;;;;;5011047;28;20482;-64
2021/05/23 14:12:10;;;;;;;5.43;2.95;;;;;;;;;;4996278;28;20057;-64
2021/05/23 14:14:55;;;;;;;4.97;1.85;;;;;;;;;;4996623;28;20133;-64
2021/05/23 14:17:40;;;;;;;10.85;3.13;;;;;;;;;;4993546;28;20045;-64
2021/05/23 14:20:26;;;;;;;7.32;2.80;;;;;;;;;;4994868;28;20523;-64
2021/05/23 14:23:11;;;;;;;11.27;3.28;;;;;;;;;;4995181;28;20056;-64
2021/05/23 14:25:57;;;;;;;6.75;1.90;;;;;;;;;;4995280;28;20054;-65
2021/05/23 14:28:42;;;;;;;7.25;1.90;;;;;;;;;;4993072;28;20157;-65
2021/05/23 14:31:28;;;;;;;4.70;1.63;;;;;;;;;;4993148;28;20412;-64
2021/05/23 14:34:13;;;;;;;3.05;1.05;;;;;;;;;;4995503;28;20053;-64
2021/05/23 14:36:58;;;;;;;5.07;1.20;;;;;;;;;;4992131;28;20042;-64
2021/05/23 14:39:43;;;;;;;5.35;1.25;;;;;;;;;;4994687;28;20046;-64
2021/05/23 14:42:29;;;;;;;4.60;1.27;;;;;;;;;;5010685;28;20057;-64
2021/05/23 14:45:14;;;;;;;5.50;1.65;;;;;;;;;;5014523;28;20046;-64
2021/05/23 14:48:00;;;;;;;3.38;1.00;;;;;;;;;;5009192;28;20043;-64
2021/05/23 14:50:45;;;;;;;3.25;1.08;;;;;;;;;;4979811;28;20097;-65
2021/05/23 14:53:30;;;;;;;3.80;1.13;;;;;;;;;;4994531;28;20515;-65
2021/05/23 14:56:16;;;;;;;2.25;1.00;;;;;;;;;;5007444;28;20069;-65
2021/05/23 14:59:01;;;;;;;3.72;1.20;;;;;;;;;;5006915;28;20069;-65
2021/05/23 15:01:47;;;;;;;3.42;0.90;;;;;;;;;;4964241;28;20054;-64
2021/05/23 15:04:32;;;;;;;4.15;1.40;;;;;;;;;;4994340;28;20046;-65
2021/05/23 15:07:17;;;;;;;3.42;1.20;;;;;;;;;;4995553;28;20057;-64
2021/05/23 15:10:04;;;;;;;4.18;1.00;;;;;;;;;;4979585;28;20396;-65
2021/05/23 15:12:50;;;;;;;4.88;1.05;;;;;;;;;;4997623;28;20044;-65
2021/05/23 15:15:35;;;;;;;4.28;0.90;;;;;;;;;;4994292;28;20046;-66
2021/05/23 15:18:20;;;;;;;3.10;1.13;;;;;;;;;;4995572;28;20062;-65
2021/05/23 15:21:06;;;;;;;2.92;0.90;;;;;;;;;;5010121;28;20100;-65
2021/05/23 15:23:51;;;;;;;4.22;1.00;;;;;;;;;;5007969;28;20053;-65
2021/05/23 15:32:33;;;;;;;3.38;1.17;;;;;;;;;;4974431;28;20297;-65
2021/05/23 15:35:18;;;;;;;4.35;1.00;;;;;;;;;;4974715;28;20057;-65
2021/05/23 15:38:04;;;;;;;2.53;0.95;;;;;;;;;;4985012;28;20040;-65
2021/05/23 15:40:49;;;;;;;3.00;0.80;;;;;;;;;;4993568;28;20052;-66
2021/05/23 15:43:34;;;;;;;4.75;1.40;;;;;;;;;;4993945;28;20524;-66
2021/05/23 15:46:20;;;;;;;2.25;0.80;;;;;;;;;;4996045;28;20077;-65
2021/05/23 15:49:05;;;;;;;4.72;1.02;;;;;;;;;;4993749;28;20540;-65
2021/05/23 15:51:51;;;;;;;4.18;0.93;;;;;;;;;;4994652;28;20522;-65
2021/05/23 15:54:36;;;;;;;3.28;0.70;;;;;;;;;;4993642;28;20056;-64
2021/05/23 15:57:22;;;;;;;3.38;0.52;;;;;;;;;;4995724;28;20129;-65
2021/05/23 16:00:08;;;;;;;3.53;0.80;;;;;;;;;;5001968;28;20060;-65
2021/05/23 16:02:53;;;;;;;3.42;1.00;;;;;;;;;;4993592;28;20057;-65
2021/05/23 16:05:39;;;;;;;2.67;0.80;;;;;;;;;;4993342;28;20412;-65
2021/05/23 16:08:25;;;;;;;4.07;1.67;;;;;;;;;;4994359;28;20046;-65
2021/05/23 16:11:10;;;;;;;4.00;0.90;;;;;;;;;;4997577;28;20061;-65
2021/05/23 16:13:55;;;;;;;5.40;1.00;;;;;;;;;;5012753;28;20401;-65
2021/05/23 16:16:41;;;;;;;3.17;0.90;;;;;;;;;;4994680;28;20050;-65
2021/05/23 16:19:26;;;;;;;3.45;1.08;;;;;;;;;;4993890;28;20072;-64
2021/05/23 16:22:12;;;;;;;2.97;0.95;;;;;;;;;;4994199;28;20049;-64
2021/05/23 16:24:57;;;;;;;3.22;0.70;;;;;;;;;;4993714;28;20132;-65
2021/05/23 16:27:42;;;;;;;2.45;1.17;;;;;;;;;;4993083;28;20053;-64
2021/05/23 16:30:28;;;;;;;3.53;1.02;;;;;;;;;;4998314;28;20523;-64
2021/05/23 16:33:13;;;;;;;4.03;0.90;;;;;;;;;;4998682;28;20077;-64
2021/05/23 16:35:59;;;;;;;3.17;1.00;;;;;;;;;;4993001;28;20064;-65